Terminal Aerodrome Forecast
Issued by NWS

Home | Current Version | Previous Version | Text Only | Print | Product List | Glossary On
Versions: 1 2 3 4 5 6 7 8 9 10 11 12 13
000
FTUS43 KGLD 230520
TAFMCK
TAF
KMCK 230520Z 2306/2406 22006KT P6SM SKC
     FM231500 19013KT P6SM SCT250
     FM231800 18020G30KT P6SM SCT270
     FM240100 17015KT P6SM FEW270
     FM240500 17013KT P6SM SCT250 WS013/19030KT=

USA.gov is the U.S. government's official web portal to all federal, state and local government web resources and services.